Time;durP1;ratioP1;P1;durP2;ratioP2;P2;SDS_P1;SDS_P2;PMS_P1;PMS_P2;Temp;Humidity;BMP_temperature;BMP_pressure;BME280_temperature;BME280_humidity;BME280_pressure;Samples;Min_cycle;Max_cycle;Signal;HPM_P1;HPM_P2
2023/04/20 00:00:27;;;;;;;5.55;5.13;;;;;;;;;;5017530;28;20049;-89
2023/04/20 00:02:54;;;;;;;5.95;5.45;;;;;;;;;;5017278;28;20049;-89
2023/04/20 00:05:22;;;;;;;5.80;5.30;;;;;;;;;;5017570;28;20053;-89
2023/04/20 00:07:49;;;;;;;6.15;5.55;;;;;;;;;;5017515;28;20486;-89
2023/04/20 00:10:16;;;;;;;6.10;5.60;;;;;;;;;;5017514;28;20081;-89
2023/04/20 00:12:43;;;;;;;8.05;5.82;;;;;;;;;;5017231;28;20049;-89
2023/04/20 00:15:11;;;;;;;6.65;6.00;;;;;;;;;;5017157;28;20128;-88
2023/04/20 00:17:38;;;;;;;6.20;5.60;;;;;;;;;;5017151;28;20407;-89
2023/04/20 00:20:06;;;;;;;7.97;5.93;;;;;;;;;;5017269;28;20049;-89
2023/04/20 00:22:34;;;;;;;8.80;6.47;;;;;;;;;;5017230;28;20050;-89
2023/04/20 00:25:02;;;;;;;6.95;6.25;;;;;;;;;;5017199;28;20442;-89
2023/04/20 00:27:29;;;;;;;6.68;6.03;;;;;;;;;;5034178;28;20072;-89
2023/04/20 00:29:56;;;;;;;8.45;6.25;;;;;;;;;;5016667;28;20506;-88
2023/04/20 00:32:23;;;;;;;8.32;6.68;;;;;;;;;;5034414;28;20046;-89
2023/04/20 00:34:51;;;;;;;7.00;6.30;;;;;;;;;;5034197;28;20049;-89
2023/04/20 00:37:18;;;;;;;8.48;7.05;;;;;;;;;;5017093;28;20513;-89
2023/04/20 00:39:45;;;;;;;7.20;6.35;;;;;;;;;;5016724;28;20045;-89
2023/04/20 00:42:12;;;;;;;7.88;7.00;;;;;;;;;;5034261;28;20060;-89
2023/04/20 00:44:39;;;;;;;7.45;6.70;;;;;;;;;;5016526;28;20049;-89
2023/04/20 00:47:06;;;;;;;6.65;6.05;;;;;;;;;;5016563;28;20500;-88
2023/04/20 00:49:34;;;;;;;6.78;6.18;;;;;;;;;;5033728;28;20061;-89
2023/04/20 00:52:01;;;;;;;6.80;6.20;;;;;;;;;;5033252;28;20576;-89
2023/04/20 00:54:29;;;;;;;6.28;5.78;;;;;;;;;;5033697;28;20054;-89
2023/04/20 00:56:58;;;;;;;6.18;5.53;;;;;;;;;;5016632;28;20401;-88
2023/04/20 00:59:25;;;;;;;6.43;5.93;;;;;;;;;;5016497;28;20096;-88
2023/04/20 01:01:52;;;;;;;6.55;5.95;;;;;;;;;;5034010;28;20052;-87
2023/04/20 01:04:20;;;;;;;6.97;6.20;;;;;;;;;;5033715;28;20088;-88
2023/04/20 01:06:47;;;;;;;8.77;7.07;;;;;;;;;;5033415;28;20049;-87
2023/04/20 01:09:14;;;;;;;8.52;6.95;;;;;;;;;;5015973;28;20059;-88
2023/04/20 01:11:42;;;;;;;6.68;6.10;;;;;;;;;;5033354;28;20076;-87
2023/04/20 01:14:09;;;;;;;8.05;7.25;;;;;;;;;;5016232;28;20049;-86
2023/04/20 01:16:36;;;;;;;7.22;6.60;;;;;;;;;;5033419;28;20045;-87
2023/04/20 01:19:04;;;;;;;10.35;7.40;;;;;;;;;;5016076;28;20461;-87
2023/04/20 01:21:31;;;;;;;8.88;7.13;;;;;;;;;;5032974;28;20524;-87
2023/04/20 01:23:58;;;;;;;10.65;8.02;;;;;;;;;;5015563;28;20056;-87
2023/04/20 01:26:26;;;;;;;8.43;7.50;;;;;;;;;;5033098;28;20056;-87
2023/04/20 01:28:53;;;;;;;9.63;7.82;;;;;;;;;;5015773;28;20504;-87
2023/04/20 01:31:20;;;;;;;8.43;7.22;;;;;;;;;;5015733;28;20045;-87
2023/04/20 01:33:48;;;;;;;8.30;7.50;;;;;;;;;;5033377;28;20486;-87
2023/04/20 01:36:15;;;;;;;7.95;7.15;;;;;;;;;;5015549;28;20057;-87
2023/04/20 01:38:43;;;;;;;9.50;7.95;;;;;;;;;;5032938;28;20049;-86
2023/04/20 01:41:10;;;;;;;11.02;8.07;;;;;;;;;;5033316;28;20050;-87
2023/04/20 01:43:38;;;;;;;8.45;7.55;;;;;;;;;;5015769;28;20049;-86
2023/04/20 01:46:05;;;;;;;7.43;6.75;;;;;;;;;;5033151;28;20089;-86
2023/04/20 01:48:32;;;;;;;7.60;6.90;;;;;;;;;;5032781;28;20042;-87
2023/04/20 01:51:00;;;;;;;7.93;7.22;;;;;;;;;;5015498;28;20054;-86
2023/04/20 01:53:27;;;;;;;8.35;7.55;;;;;;;;;;5015396;28;20049;-87
2023/04/20 01:55:54;;;;;;;8.10;7.28;;;;;;;;;;5015702;28;20057;-87
2023/04/20 01:58:22;;;;;;;7.03;6.32;;;;;;;;;;5015624;28;20041;-87
2023/04/20 02:00:49;;;;;;;7.38;6.68;;;;;;;;;;5015548;28;20049;-86
2023/04/20 02:03:16;;;;;;;6.85;6.25;;;;;;;;;;5018370;28;20486;-87
2023/04/20 02:05:44;;;;;;;7.20;6.60;;;;;;;;;;5019004;28;20064;-87
2023/04/20 02:08:11;;;;;;;7.82;7.03;;;;;;;;;;5036733;28;20045;-87
2023/04/20 02:10:38;;;;;;;7.10;6.50;;;;;;;;;;5018794;28;20069;-87
2023/04/20 02:13:06;;;;;;;7.10;6.40;;;;;;;;;;5019087;28;20050;-86
2023/04/20 02:15:33;;;;;;;7.93;7.13;;;;;;;;;;5018968;28;20429;-87
2023/04/20 02:18:00;;;;;;;6.93;6.22;;;;;;;;;;5018998;28;20390;-87
2023/04/20 02:20:27;;;;;;;7.97;7.28;;;;;;;;;;5036143;28;20060;-86
2023/04/20 02:22:55;;;;;;;7.43;6.72;;;;;;;;;;5036430;28;20409;-87
2023/04/20 02:25:22;;;;;;;8.13;7.38;;;;;;;;;;5018910;28;20164;-87
2023/04/20 02:27:49;;;;;;;8.02;7.18;;;;;;;;;;5035984;28;20383;-87
2023/04/20 02:30:17;;;;;;;7.45;6.72;;;;;;;;;;5018356;28;20062;-87
2023/04/20 02:32:44;;;;;;;8.80;7.90;;;;;;;;;;5035943;28;20063;-87
2023/04/20 02:35:11;;;;;;;9.35;8.15;;;;;;;;;;5035968;28;20061;-87
2023/04/20 02:37:38;;;;;;;8.63;7.72;;;;;;;;;;5018774;28;20049;-87
2023/04/20 02:40:07;;;;;;;9.38;8.48;;;;;;;;;;5018704;28;20120;-87
2023/04/20 02:42:34;;;;;;;9.57;7.90;;;;;;;;;;5018572;28;20049;-87
2023/04/20 02:45:01;;;;;;;7.78;7.07;;;;;;;;;;5035852;28;20049;-87
2023/04/20 02:47:28;;;;;;;8.68;7.88;;;;;;;;;;5018071;28;20568;-87
2023/04/20 02:49:56;;;;;;;8.40;7.60;;;;;;;;;;5018082;28;20052;-87
2023/04/20 02:52:23;;;;;;;8.70;7.90;;;;;;;;;;5018439;28;20053;-87
2023/04/20 02:54:50;;;;;;;8.27;7.50;;;;;;;;;;5018288;28;20146;-87
2023/04/20 02:57:17;;;;;;;8.63;7.80;;;;;;;;;;5018353;28;20436;-87
2023/04/20 02:59:44;;;;;;;9.07;8.20;;;;;;;;;;5035337;28;20494;-87
2023/04/20 03:02:11;;;;;;;8.25;7.45;;;;;;;;;;5018247;28;20484;-87
2023/04/20 03:04:39;;;;;;;9.05;8.15;;;;;;;;;;5018310;28;20077;-87
2023/04/20 03:07:08;;;;;;;9.70;8.48;;;;;;;;;;5018285;28;20088;-88
2023/04/20 03:09:36;;;;;;;10.20;8.80;;;;;;;;;;5018129;28;20406;-87
2023/04/20 03:12:06;;;;;;;10.52;9.20;;;;;;;;;;5017900;28;20057;-87
2023/04/20 03:14:33;;;;;;;9.50;8.55;;;;;;;;;;5017125;28;20418;-88
2023/04/20 03:17:00;;;;;;;10.77;9.32;;;;;;;;;;5018256;28;20045;-88
2023/04/20 03:19:27;;;;;;;9.98;8.98;;;;;;;;;;5017753;28;20057;-87
2023/04/20 03:21:55;;;;;;;11.13;9.23;;;;;;;;;;5017994;28;20060;-85
2023/04/20 03:24:22;;;;;;;10.23;9.13;;;;;;;;;;5017678;28;20391;-87
2023/04/20 03:26:50;;;;;;;9.63;8.73;;;;;;;;;;5017825;28;20107;-88
2023/04/20 03:29:17;;;;;;;8.85;7.65;;;;;;;;;;5034894;28;20057;-88
2023/04/20 03:31:45;;;;;;;9.35;8.45;;;;;;;;;;5017641;28;20457;-88
2023/04/20 03:34:12;;;;;;;8.18;7.45;;;;;;;;;;5017637;28;20042;-87
2023/04/20 03:36:39;;;;;;;9.23;8.32;;;;;;;;;;5034981;28;20099;-88
2023/04/20 03:39:06;;;;;;;8.25;7.30;;;;;;;;;;5034979;28;20061;-87
2023/04/20 03:41:34;;;;;;;9.43;8.48;;;;;;;;;;5017497;28;20060;-87
2023/04/20 03:44:01;;;;;;;9.27;7.93;;;;;;;;;;5034989;28;20120;-88
2023/04/20 03:46:28;;;;;;;7.75;7.05;;;;;;;;;;5034814;28;20050;-87
2023/04/20 03:48:56;;;;;;;8.70;7.85;;;;;;;;;;5034788;28;20089;-88
2023/04/20 03:51:23;;;;;;;7.85;7.15;;;;;;;;;;5017276;28;20045;-88
2023/04/20 03:53:50;;;;;;;9.50;8.60;;;;;;;;;;5034594;28;20434;-87
2023/04/20 03:56:17;;;;;;;9.10;8.20;;;;;;;;;;5034550;28;20324;-88
2023/04/20 03:58:44;;;;;;;9.40;8.40;;;;;;;;;;5034866;28;20421;-88
2023/04/20 04:01:12;;;;;;;9.02;8.13;;;;;;;;;;5017314;28;20056;-88
2023/04/20 04:03:39;;;;;;;8.60;7.70;;;;;;;;;;5017213;28;20144;-88
2023/04/20 04:06:07;;;;;;;8.73;7.82;;;;;;;;;;5017490;28;20045;-88
2023/04/20 04:08:34;;;;;;;7.75;7.05;;;;;;;;;;5016903;28;20049;-89
2023/04/20 04:11:01;;;;;;;8.45;7.55;;;;;;;;;;5017154;28;20128;-88
2023/04/20 04:13:29;;;;;;;9.25;8.35;;;;;;;;;;5017117;28;20041;-88
2023/04/20 04:15:57;;;;;;;10.40;8.63;;;;;;;;;;5017199;28;20081;-88
2023/04/20 04:18:24;;;;;;;8.88;7.97;;;;;;;;;;5017160;28;20132;-88
2023/04/20 04:20:52;;;;;;;9.80;7.38;;;;;;;;;;5016850;28;20124;-88
2023/04/20 04:23:19;;;;;;;9.30;8.40;;;;;;;;;;5034205;28;20054;-89
2023/04/20 04:25:47;;;;;;;11.27;8.00;;;;;;;;;;5015875;28;20045;-88
2023/04/20 04:28:15;;;;;;;9.38;7.93;;;;;;;;;;5021492;28;20076;-88
2023/04/20 04:30:42;;;;;;;10.23;8.57;;;;;;;;;;5036227;28;20099;-88
2023/04/20 04:33:11;;;;;;;11.57;8.63;;;;;;;;;;5016842;28;20049;-88
2023/04/20 04:35:40;;;;;;;10.10;7.78;;;;;;;;;;5016441;28;20414;-88
2023/04/20 04:38:07;;;;;;;12.60;10.38;;;;;;;;;;5033860;28;20055;-88
2023/04/20 04:40:34;;;;;;;12.52;8.48;;;;;;;;;;5034338;28;20049;-87
2023/04/20 04:43:02;;;;;;;14.15;8.60;;;;;;;;;;5033886;28;20486;-87
2023/04/20 04:45:30;;;;;;;12.32;9.10;;;;;;;;;;5016330;28;20060;-88
2023/04/20 04:47:57;;;;;;;9.07;8.15;;;;;;;;;;5016144;28;20052;-88
2023/04/20 04:50:25;;;;;;;9.98;8.57;;;;;;;;;;5016178;28;20080;-88
2023/04/20 04:52:52;;;;;;;12.77;10.43;;;;;;;;;;5016632;28;20045;-88
2023/04/20 04:55:19;;;;;;;9.18;8.27;;;;;;;;;;5016255;28;20049;-88
2023/04/20 04:57:46;;;;;;;9.60;8.70;;;;;;;;;;5033645;28;20482;-88
2023/04/20 05:00:14;;;;;;;9.95;8.90;;;;;;;;;;5016276;28;20548;-88
2023/04/20 05:02:41;;;;;;;9.27;8.32;;;;;;;;;;5015803;28;20524;-88
2023/04/20 05:05:09;;;;;;;10.20;7.93;;;;;;;;;;5016064;28;20049;-88
2023/04/20 05:07:37;;;;;;;11.20;9.95;;;;;;;;;;5033750;28;20559;-88
2023/04/20 05:10:04;;;;;;;10.13;9.13;;;;;;;;;;5016427;28;20050;-88
2023/04/20 05:12:32;;;;;;;13.63;9.80;;;;;;;;;;5015995;28;20054;-88
2023/04/20 05:14:59;;;;;;;12.75;9.38;;;;;;;;;;5016186;28;20124;-88
2023/04/20 05:17:26;;;;;;;17.75;12.02;;;;;;;;;;5016024;28;20141;-88
2023/04/20 05:19:53;;;;;;;12.15;10.40;;;;;;;;;;5015974;28;20486;-88
2023/04/20 05:22:21;;;;;;;13.18;10.07;;;;;;;;;;5015863;28;20065;-89
2023/04/20 05:24:48;;;;;;;11.98;10.48;;;;;;;;;;5031373;28;20167;-89
2023/04/20 05:27:15;;;;;;;11.95;10.35;;;;;;;;;;5002818;28;20109;-88
2023/04/20 05:29:42;;;;;;;13.45;12.05;;;;;;;;;;4998419;28;20069;-88
2023/04/20 05:32:09;;;;;;;16.48;13.55;;;;;;;;;;4996457;28;20490;-88
2023/04/20 05:34:37;;;;;;;16.17;12.80;;;;;;;;;;5013511;28;20096;-88
2023/04/20 05:37:05;;;;;;;11.38;10.00;;;;;;;;;;5014893;28;20049;-89
2023/04/20 05:39:32;;;;;;;9.93;9.02;;;;;;;;;;5000762;28;20096;-89
2023/04/20 05:42:00;;;;;;;9.85;8.85;;;;;;;;;;5000556;28;20050;-89
2023/04/20 05:44:27;;;;;;;12.57;9.85;;;;;;;;;;5000382;28;20089;-89
2023/04/20 05:46:55;;;;;;;12.63;10.18;;;;;;;;;;5017681;28;20101;-88
2023/04/20 05:49:22;;;;;;;11.60;9.55;;;;;;;;;;5000233;28;20049;-89
2023/04/20 05:51:50;;;;;;;11.55;9.20;;;;;;;;;;5017242;28;20137;-89
2023/04/20 05:54:17;;;;;;;10.23;8.27;;;;;;;;;;5017440;28;20050;-90
2023/04/20 05:56:45;;;;;;;8.98;8.00;;;;;;;;;;5016697;28;20054;-90
2023/04/20 05:59:12;;;;;;;12.52;8.88;;;;;;;;;;4999747;28;20151;-90
2023/04/20 06:01:39;;;;;;;10.70;9.60;;;;;;;;;;5000014;28;20060;-89
2023/04/20 06:04:07;;;;;;;12.00;9.77;;;;;;;;;;4999897;28;20045;-89
2023/04/20 06:06:34;;;;;;;12.98;10.00;;;;;;;;;;5017164;28;20054;-89
2023/04/20 06:09:02;;;;;;;12.52;10.57;;;;;;;;;;4999816;28;20046;-89
2023/04/20 06:11:30;;;;;;;13.57;11.00;;;;;;;;;;4999412;28;20521;-89
2023/04/20 06:13:57;;;;;;;14.95;11.15;;;;;;;;;;5016851;28;20085;-89
2023/04/20 06:16:24;;;;;;;13.05;11.35;;;;;;;;;;4999675;28;20050;-89
2023/04/20 06:18:51;;;;;;;13.25;10.32;;;;;;;;;;5016837;28;20049;-89
2023/04/20 06:21:19;;;;;;;12.25;10.38;;;;;;;;;;4999882;28;20042;-90
2023/04/20 06:23:46;;;;;;;8.35;7.55;;;;;;;;;;5016834;28;20058;-90
2023/04/20 06:26:13;;;;;;;8.23;7.43;;;;;;;;;;4999400;28;20061;-89
2023/04/20 06:28:41;;;;;;;10.13;7.55;;;;;;;;;;4999430;28;20057;-89
2023/04/20 06:31:09;;;;;;;8.77;7.78;;;;;;;;;;4999599;28;20124;-89
2023/04/20 06:33:36;;;;;;;7.97;7.18;;;;;;;;;;4999557;28;20042;-90
2023/04/20 06:36:06;;;;;;;9.05;7.07;;;;;;;;;;5016483;28;20060;-89
2023/04/20 06:38:33;;;;;;;7.45;6.30;;;;;;;;;;5016753;28;20042;-90
2023/04/20 06:41:01;;;;;;;7.20;6.55;;;;;;;;;;5016480;28;20053;-89
2023/04/20 06:43:30;;;;;;;8.70;6.72;;;;;;;;;;4999260;28;20398;-90
2023/04/20 06:45:57;;;;;;;8.93;7.43;;;;;;;;;;4999320;28;20046;-90
2023/04/20 06:48:24;;;;;;;9.38;8.30;;;;;;;;;;5015201;28;20057;-90
2023/04/20 06:50:58;;;;;;;10.88;7.85;;;;;;;;;;4999875;28;20387;-90
2023/04/20 06:53:26;;;;;;;13.63;7.93;;;;;;;;;;5016072;28;20502;-89
2023/04/20 06:55:54;;;;;;;8.75;7.90;;;;;;;;;;4998706;28;20475;-91
2023/04/20 06:58:21;;;;;;;15.50;8.80;;;;;;;;;;4998980;28;20554;-90
2023/04/20 07:00:49;;;;;;;9.27;8.27;;;;;;;;;;5016014;28;20049;-91
2023/04/20 07:03:17;;;;;;;10.50;7.85;;;;;;;;;;4998650;28;20049;-90
2023/04/20 07:05:45;;;;;;;9.48;8.27;;;;;;;;;;5015529;28;20050;-91
2023/04/20 07:08:14;;;;;;;11.13;8.60;;;;;;;;;;4998977;28;20112;-90
2023/04/20 07:10:42;;;;;;;12.13;8.07;;;;;;;;;;4998841;28;20070;-90
2023/04/20 07:13:09;;;;;;;9.50;7.57;;;;;;;;;;5016044;28;20070;-91
2023/04/20 07:15:36;;;;;;;11.20;7.47;;;;;;;;;;4998781;28;20053;-92
2023/04/20 07:18:04;;;;;;;8.20;6.68;;;;;;;;;;4998520;28;20088;-90
2023/04/20 07:20:31;;;;;;;9.20;6.38;;;;;;;;;;4998807;28;20050;-90
2023/04/20 07:22:58;;;;;;;11.52;6.35;;;;;;;;;;5015599;28;20046;-90
2023/04/20 07:25:26;;;;;;;5.97;5.40;;;;;;;;;;4998383;28;20092;-90
2023/04/20 07:27:53;;;;;;;7.68;5.20;;;;;;;;;;4998481;28;20406;-91
2023/04/20 07:30:20;;;;;;;31.25;8.00;;;;;;;;;;5015301;28;20062;-91
2023/04/20 07:32:50;;;;;;;9.75;6.22;;;;;;;;;;4998555;28;20064;-92
2023/04/20 07:35:17;;;;;;;11.63;6.70;;;;;;;;;;5015561;28;20050;-91
2023/04/20 07:37:44;;;;;;;6.20;5.60;;;;;;;;;;4998294;28;20053;-91
2023/04/20 07:40:12;;;;;;;6.88;5.97;;;;;;;;;;4998346;28;20053;-90
2023/04/20 07:42:39;;;;;;;6.57;5.97;;;;;;;;;;4998376;28;20418;-92
2023/04/20 07:45:07;;;;;;;6.18;5.57;;;;;;;;;;4997785;28;20054;-92
2023/04/20 07:47:34;;;;;;;10.45;6.32;;;;;;;;;;4997932;28;20096;-90
2023/04/20 07:50:02;;;;;;;10.15;7.72;;;;;;;;;;4998028;28;20157;-91
2023/04/20 07:52:29;;;;;;;21.63;16.75;;;;;;;;;;4997596;28;20050;-92
2023/04/20 07:54:58;;;;;;;22.88;15.80;;;;;;;;;;5015067;28;20050;-91
2023/04/20 07:57:26;;;;;;;12.02;9.13;;;;;;;;;;4997763;28;20060;-92
2023/04/20 07:59:53;;;;;;;11.52;6.47;;;;;;;;;;4996255;28;20050;-91
2023/04/20 08:02:20;;;;;;;17.70;14.13;;;;;;;;;;5014901;28;20520;-91
2023/04/20 08:04:48;;;;;;;16.80;12.43;;;;;;;;;;4997392;28;20074;-91
2023/04/20 08:07:16;;;;;;;13.05;6.80;;;;;;;;;;4997235;28;20548;-90
2023/04/20 08:09:44;;;;;;;5.40;4.93;;;;;;;;;;4997621;28;20542;-91
2023/04/20 08:12:11;;;;;;;18.77;6.55;;;;;;;;;;4997231;28;20053;-92
2023/04/20 08:14:39;;;;;;;4.78;4.35;;;;;;;;;;4997323;28;20054;-90
2023/04/20 08:17:07;;;;;;;4.07;3.78;;;;;;;;;;5015115;28;20077;-91
2023/04/20 08:19:35;;;;;;;4.47;4.20;;;;;;;;;;4997414;28;20050;-91
2023/04/20 08:22:02;;;;;;;23.85;6.13;;;;;;;;;;4997382;28;20553;-91
2023/04/20 08:24:29;;;;;;;16.92;6.10;;;;;;;;;;4997190;28;20049;-89
2023/04/20 08:26:58;;;;;;;9.50;5.20;;;;;;;;;;5014614;28;20046;-91
2023/04/20 08:29:25;;;;;;;5.28;4.70;;;;;;;;;;4997154;28;20414;-90
2023/04/20 08:31:52;;;;;;;5.68;4.75;;;;;;;;;;4997284;28;20046;-91
2023/04/20 08:34:20;;;;;;;5.43;4.72;;;;;;;;;;4997263;28;20100;-92
2023/04/20 08:36:48;;;;;;;5.15;4.75;;;;;;;;;;4997535;28;20056;-92
2023/04/20 08:39:18;;;;;;;5.93;5.13;;;;;;;;;;4997272;28;20565;-91
2023/04/20 08:41:46;;;;;;;5.30;4.90;;;;;;;;;;5014529;28;20520;-91
2023/04/20 08:44:14;;;;;;;6.28;5.68;;;;;;;;;;5014432;28;20045;-92
2023/04/20 08:46:45;;;;;;;5.97;5.38;;;;;;;;;;5014326;28;20089;-91
2023/04/20 08:49:14;;;;;;;18.88;5.22;;;;;;;;;;4997322;28;20486;-91
2023/04/20 08:51:42;;;;;;;6.82;4.55;;;;;;;;;;5014196;28;20053;-92
2023/04/20 08:54:10;;;;;;;4.28;3.90;;;;;;;;;;5014211;28;20391;-92
2023/04/20 08:56:39;;;;;;;3.95;3.65;;;;;;;;;;5014289;28;20049;-90
2023/04/20 08:59:09;;;;;;;4.85;4.43;;;;;;;;;;5014384;28;20056;-91
2023/04/20 09:01:38;;;;;;;5.00;4.60;;;;;;;;;;4997407;28;20052;-91
2023/04/20 09:04:15;;;;;;;16.23;6.72;;;;;;;;;;4996963;28;20080;-89
2023/04/20 09:06:49;;;;;;;8.15;5.13;;;;;;;;;;4996925;28;20133;-90
2023/04/20 09:09:17;;;;;;;6.27;5.47;;;;;;;;;;4997009;28;20046;-90
2023/04/20 09:11:44;;;;;;;8.90;6.00;;;;;;;;;;5013526;28;20059;-91
2023/04/20 09:14:13;;;;;;;6.75;5.60;;;;;;;;;;5013946;28;20137;-90
2023/04/20 09:16:55;;;;;;;6.15;5.53;;;;;;;;;;5013930;28;20084;-89
2023/04/20 09:19:23;;;;;;;12.38;5.85;;;;;;;;;;4996705;28;20085;-90
2023/04/20 09:21:51;;;;;;;7.22;5.60;;;;;;;;;;4996985;28;20074;-90
2023/04/20 09:24:20;;;;;;;6.05;5.55;;;;;;;;;;4996688;28;20054;-90
2023/04/20 09:26:47;;;;;;;9.63;5.88;;;;;;;;;;4996773;28;20042;-90
2023/04/20 09:29:18;;;;;;;6.45;5.90;;;;;;;;;;5013267;28;20065;-90
2023/04/20 09:31:46;;;;;;;5.82;5.30;;;;;;;;;;4996689;28;20049;-91
2023/04/20 09:34:14;;;;;;;6.93;6.05;;;;;;;;;;5013786;28;20050;-90
2023/04/20 09:36:43;;;;;;;7.28;6.10;;;;;;;;;;4996732;28;20050;-90
2023/04/20 09:39:11;;;;;;;8.77;6.47;;;;;;;;;;4996587;28;20068;-91
2023/04/20 09:41:39;;;;;;;6.53;5.82;;;;;;;;;;4996353;28;20054;-91
2023/04/20 09:44:07;;;;;;;6.30;5.78;;;;;;;;;;4996406;28;20100;-91
2023/04/20 09:46:35;;;;;;;9.70;6.10;;;;;;;;;;4996576;28;20061;-91
2023/04/20 09:49:03;;;;;;;7.43;6.35;;;;;;;;;;4996527;28;20414;-91
2023/04/20 09:51:32;;;;;;;6.50;6.00;;;;;;;;;;4996422;28;20405;-91
2023/04/20 09:54:00;;;;;;;6.63;6.05;;;;;;;;;;4996349;28;20050;-90
2023/04/20 09:56:28;;;;;;;9.60;6.63;;;;;;;;;;4996319;28;20060;-91
2023/04/20 09:58:56;;;;;;;8.55;6.32;;;;;;;;;;4996322;28;20057;-89
2023/04/20 10:01:23;;;;;;;8.00;6.65;;;;;;;;;;4996478;28;20057;-90
2023/04/20 10:03:54;;;;;;;9.48;6.72;;;;;;;;;;4996366;28;20050;-90
2023/04/20 10:06:23;;;;;;;8.98;7.25;;;;;;;;;;4996418;28;20078;-91
2023/04/20 10:08:51;;;;;;;8.25;7.47;;;;;;;;;;4996114;28;20054;-92
2023/04/20 10:11:24;;;;;;;15.10;12.88;;;;;;;;;;4996073;28;20041;-90
2023/04/20 10:13:54;;;;;;;11.35;9.73;;;;;;;;;;5013296;28;20136;-90
2023/04/20 10:16:21;;;;;;;16.63;12.55;;;;;;;;;;5013608;28;20050;-90
2023/04/20 10:19:02;;;;;;;15.32;13.70;;;;;;;;;;4996382;28;20050;-90
2023/04/20 10:21:31;;;;;;;16.80;12.98;;;;;;;;;;4996098;28;20072;-91
2023/04/20 10:24:02;;;;;;;12.85;10.73;;;;;;;;;;5016194;28;20128;-90
2023/04/20 10:26:36;;;;;;;20.25;12.73;;;;;;;;;;5000399;28;20387;-91
2023/04/20 10:29:03;;;;;;;10.30;9.07;;;;;;;;;;4999745;28;20058;-91
2023/04/20 10:31:37;;;;;;;24.10;15.95;;;;;;;;;;5016733;28;20057;-92
2023/04/20 10:34:06;;;;;;;18.38;11.30;;;;;;;;;;5016915;28;20100;-90
2023/04/20 10:36:37;;;;;;;13.20;11.07;;;;;;;;;;5016822;28;20057;-90
2023/04/20 10:39:14;;;;;;;11.73;8.68;;;;;;;;;;5016944;28;20056;-89
2023/04/20 10:41:53;;;;;;;17.05;10.43;;;;;;;;;;5000289;28;20046;-90
2023/04/20 10:44:21;;;;;;;12.20;9.00;;;;;;;;;;4999255;28;20073;-91
2023/04/20 10:46:49;;;;;;;8.57;7.78;;;;;;;;;;4999322;28;20045;-91
2023/04/20 10:49:17;;;;;;;17.30;8.07;;;;;;;;;;5016770;28;20466;-91
2023/04/20 10:51:51;;;;;;;13.90;7.28;;;;;;;;;;4999418;28;20078;-90
2023/04/20 10:54:19;;;;;;;7.05;6.43;;;;;;;;;;5016068;28;20045;-88
2023/04/20 10:56:47;;;;;;;7.78;7.07;;;;;;;;;;4999529;28;20479;-87
2023/04/20 10:59:16;;;;;;;8.93;7.20;;;;;;;;;;4999067;28;20072;-89
2023/04/20 11:01:45;;;;;;;7.57;6.72;;;;;;;;;;4998950;28;20129;-89
2023/04/20 11:04:13;;;;;;;8.55;7.18;;;;;;;;;;5016172;28;20526;-87
2023/04/20 11:06:46;;;;;;;9.48;7.28;;;;;;;;;;4999313;28;20414;-87
2023/04/20 11:09:22;;;;;;;8.38;7.38;;;;;;;;;;5016029;28;20136;-88
2023/04/20 11:11:59;;;;;;;8.98;7.13;;;;;;;;;;5016393;28;20049;-87
2023/04/20 11:14:26;;;;;;;10.00;6.85;;;;;;;;;;4998760;28;20050;-89
2023/04/20 11:16:53;;;;;;;6.53;6.03;;;;;;;;;;5016489;28;20129;-88
2023/04/20 11:19:30;;;;;;;7.25;6.53;;;;;;;;;;5015932;28;20042;-88
2023/04/20 11:21:58;;;;;;;7.60;6.90;;;;;;;;;;5016025;28;20058;-89
2023/04/20 11:24:26;;;;;;;8.77;6.40;;;;;;;;;;5015820;28;20049;-88
2023/04/20 11:26:53;;;;;;;7.22;6.07;;;;;;;;;;4997392;28;20080;-88
2023/04/20 11:29:27;;;;;;;8.02;5.60;;;;;;;;;;5015254;28;20529;-88
2023/04/20 11:31:55;;;;;;;8.48;5.25;;;;;;;;;;4998568;28;20057;-88
2023/04/20 11:34:24;;;;;;;4.97;4.57;;;;;;;;;;4998305;28;20471;-87
2023/04/20 11:36:51;;;;;;;86.00;42.25;;;;;;;;;;4998488;28;20057;-89
2023/04/20 11:39:31;;;;;;;19.85;12.65;;;;;;;;;;5015577;28;20129;-87
2023/04/20 11:41:58;;;;;;;23.42;14.32;;;;;;;;;;4998479;28;20049;-88
2023/04/20 11:44:26;;;;;;;29.33;14.30;;;;;;;;;;5015438;28;20056;-87
2023/04/20 11:46:55;;;;;;;86.05;36.15;;;;;;;;;;4998111;28;20056;-91
2023/04/20 11:49:23;;;;;;;44.53;20.23;;;;;;;;;;4998847;28;20466;-91
2023/04/20 11:51:51;;;;;;;16.85;10.27;;;;;;;;;;5021406;28;20050;-91
2023/04/20 11:54:18;;;;;;;78.82;29.70;;;;;;;;;;5015499;28;20418;-91
2023/04/20 11:56:45;;;;;;;28.33;15.52;;;;;;;;;;4998317;28;20046;-90
2023/04/20 11:59:13;;;;;;;110.82;46.60;;;;;;;;;;4997926;28;20050;-89
2023/04/20 12:01:41;;;;;;;62.45;31.10;;;;;;;;;;5015584;28;20042;-88
2023/04/20 12:04:08;;;;;;;62.78;32.55;;;;;;;;;;4997962;28;20486;-91
2023/04/20 12:06:36;;;;;;;24.27;13.32;;;;;;;;;;5015739;28;20100;-91
2023/04/20 12:09:05;;;;;;;112.10;49.65;;;;;;;;;;5015541;28;20198;-90
2023/04/20 12:11:32;;;;;;;36.67;21.65;;;;;;;;;;4997863;28;20101;-90
2023/04/20 12:13:59;;;;;;;12.40;10.02;;;;;;;;;;5014923;28;20100;-90
2023/04/20 12:16:26;;;;;;;42.33;24.13;;;;;;;;;;5015067;28;20071;-90
2023/04/20 12:18:55;;;;;;;17.23;12.55;;;;;;;;;;4998033;28;20050;-91
2023/04/20 12:21:22;;;;;;;13.52;10.68;;;;;;;;;;5014976;28;20057;-90
2023/04/20 12:23:50;;;;;;;11.27;9.75;;;;;;;;;;5014776;28;20050;-89
2023/04/20 12:26:17;;;;;;;14.02;11.23;;;;;;;;;;4997718;28;20042;-90
2023/04/20 12:28:44;;;;;;;15.05;9.25;;;;;;;;;;4997879;28;20136;-92
2023/04/20 12:31:11;;;;;;;27.27;18.17;;;;;;;;;;4997357;28;20046;-89
2023/04/20 12:33:39;;;;;;;16.58;11.65;;;;;;;;;;4997522;28;20403;-91
2023/04/20 12:36:06;;;;;;;19.10;12.05;;;;;;;;;;4997296;28;20132;-91
2023/04/20 12:38:33;;;;;;;10.32;9.25;;;;;;;;;;5014723;28;20056;-90
2023/04/20 12:41:00;;;;;;;9.57;8.50;;;;;;;;;;4997323;28;20062;-91
2023/04/20 12:43:28;;;;;;;9.18;8.27;;;;;;;;;;5014741;28;20056;-90
2023/04/20 12:45:55;;;;;;;12.43;8.57;;;;;;;;;;4997120;28;20046;-91
2023/04/20 12:48:22;;;;;;;12.18;8.73;;;;;;;;;;5014253;28;20057;-91
2023/04/20 12:50:49;;;;;;;9.68;8.38;;;;;;;;;;4997570;28;20128;-91
2023/04/20 12:53:18;;;;;;;10.50;7.93;;;;;;;;;;5014135;28;20406;-90
2023/04/20 12:55:46;;;;;;;15.18;8.65;;;;;;;;;;4997238;28;20046;-90
2023/04/20 12:58:14;;;;;;;12.07;8.35;;;;;;;;;;4997225;28;20478;-90
2023/04/20 13:00:42;;;;;;;18.27;8.30;;;;;;;;;;4997299;28;20050;-91
2023/04/20 13:03:09;;;;;;;9.13;8.00;;;;;;;;;;4996920;28;20045;-90
2023/04/20 13:05:37;;;;;;;9.70;8.05;;;;;;;;;;4997273;28;20081;-90
2023/04/20 13:08:04;;;;;;;9.38;6.85;;;;;;;;;;4997080;28;20056;-90
2023/04/20 13:10:31;;;;;;;10.77;7.28;;;;;;;;;;5014537;28;20132;-91
2023/04/20 13:12:58;;;;;;;8.38;6.97;;;;;;;;;;5014041;28;20060;-91
2023/04/20 13:15:26;;;;;;;7.82;6.05;;;;;;;;;;5014305;28;20164;-90
2023/04/20 13:18:05;;;;;;;11.55;6.72;;;;;;;;;;4998916;28;20486;-90
2023/04/20 13:20:32;;;;;;;9.88;6.43;;;;;;;;;;4996591;28;20050;-92
2023/04/20 13:23:00;;;;;;;7.57;6.63;;;;;;;;;;4996991;28;20478;-91
2023/04/20 13:25:28;;;;;;;10.63;7.40;;;;;;;;;;4996557;28;20466;-90
2023/04/20 13:27:56;;;;;;;11.38;7.35;;;;;;;;;;4996641;28;20053;-91
2023/04/20 13:30:23;;;;;;;11.13;6.72;;;;;;;;;;4996813;28;20054;-90
2023/04/20 13:32:51;;;;;;;10.82;7.28;;;;;;;;;;5013929;28;20054;-89
2023/04/20 13:35:18;;;;;;;7.63;6.82;;;;;;;;;;5013741;28;20088;-90
2023/04/20 13:37:45;;;;;;;15.10;7.38;;;;;;;;;;4996609;28;20049;-90
2023/04/20 13:40:13;;;;;;;8.75;7.13;;;;;;;;;;4996743;28;20421;-92
2023/04/20 13:42:40;;;;;;;12.52;7.43;;;;;;;;;;4996774;28;20045;-93
2023/04/20 13:45:07;;;;;;;31.02;15.02;;;;;;;;;;4996631;28;20054;-90
2023/04/20 13:47:34;;;;;;;8.10;7.30;;;;;;;;;;5013571;28;20136;-88
2023/04/20 13:50:02;;;;;;;29.65;20.73;;;;;;;;;;4996627;28;20064;-90
2023/04/20 13:52:29;;;;;;;11.63;8.65;;;;;;;;;;5014057;28;20398;-91
2023/04/20 13:54:57;;;;;;;9.90;8.75;;;;;;;;;;4996398;28;20499;-91
2023/04/20 13:57:24;;;;;;;10.32;8.90;;;;;;;;;;4996129;28;20410;-90
2023/04/20 13:59:52;;;;;;;10.15;8.57;;;;;;;;;;5000355;28;20085;-90
2023/04/20 14:02:19;;;;;;;12.02;9.73;;;;;;;;;;4999795;28;20132;-93
2023/04/20 14:04:46;;;;;;;10.10;9.00;;;;;;;;;;5000246;28;20470;-92
2023/04/20 14:07:13;;;;;;;13.52;10.00;;;;;;;;;;5017406;28;20049;-91
2023/04/20 14:09:43;;;;;;;13.95;8.85;;;;;;;;;;5017526;28;20054;-91
2023/04/20 14:12:10;;;;;;;9.95;8.85;;;;;;;;;;4999910;28;20050;-92
2023/04/20 14:14:37;;;;;;;15.40;9.23;;;;;;;;;;5000045;28;20065;-91
2023/04/20 14:17:05;;;;;;;10.43;8.63;;;;;;;;;;5017203;28;20057;-91
2023/04/20 14:19:32;;;;;;;12.10;8.77;;;;;;;;;;5017334;28;20060;-91
2023/04/20 14:22:01;;;;;;;11.25;9.65;;;;;;;;;;5000233;28;20391;-91
2023/04/20 14:24:29;;;;;;;10.07;9.05;;;;;;;;;;4999645;28;20498;-91
2023/04/20 14:26:56;;;;;;;9.70;8.70;;;;;;;;;;5017335;28;20056;-90
2023/04/20 14:29:24;;;;;;;11.02;9.50;;;;;;;;;;5016857;28;20058;-90
2023/04/20 14:31:51;;;;;;;13.18;8.93;;;;;;;;;;4999560;28;20046;-91
2023/04/20 14:34:18;;;;;;;13.85;9.60;;;;;;;;;;5016944;28;20498;-91
2023/04/20 14:36:46;;;;;;;12.13;8.80;;;;;;;;;;4999580;28;20050;-90
2023/04/20 14:39:13;;;;;;;12.07;8.82;;;;;;;;;;5016739;28;20080;-91